sensor_id;sensor_type;location;lat;lon;timestamp;pressure;altitude;pressure_sealevel;temperature;humidity
46614;BME280;32338;50.430;6.806;2024-03-17T00:00:20;65625.22;;;1.88;100.00
46614;BME280;32338;50.430;6.806;2024-03-17T00:02:45;65620.38;;;1.86;100.00
46614;BME280;32338;50.430;6.806;2024-03-17T00:05:14;65624.44;;;1.85;100.00
46614;BME280;32338;50.430;6.806;2024-03-17T00:07:40;65618.84;;;1.80;100.00
46614;BME280;32338;50.430;6.806;2024-03-17T00:10:07;65621.44;;;1.80;100.00
46614;BME280;32338;50.430;6.806;2024-03-17T00:12:33;65612.56;;;1.79;100.00
46614;BME280;32338;50.430;6.806;2024-03-17T00:15:00;65617.94;;;1.82;100.00
46614;BME280;32338;50.430;6.806;2024-03-17T00:17:26;65609.22;;;1.76;100.00
46614;BME280;32338;50.430;6.806;2024-03-17T00:19:53;65609.34;;;1.71;100.00
46614;BME280;32338;50.430;6.806;2024-03-17T00:22:20;65599.50;;;1.65;100.00
46614;BME280;32338;50.430;6.806;2024-03-17T00:24:46;65597.63;;;1.60;100.00
46614;BME280;32338;50.430;6.806;2024-03-17T00:27:12;65590.13;;;1.51;100.00
46614;BME280;32338;50.430;6.806;2024-03-17T00:29:40;65586.09;;;1.52;100.00
46614;BME280;32338;50.430;6.806;2024-03-17T00:32:06;65583.63;;;1.48;100.00
46614;BME280;32338;50.430;6.806;2024-03-17T00:34:33;65576.59;;;1.43;100.00
46614;BME280;32338;50.430;6.806;2024-03-17T00:36:58;65575.66;;;1.45;100.00
46614;BME280;32338;50.430;6.806;2024-03-17T00:39:27;65578.47;;;1.48;100.00
46614;BME280;32338;50.430;6.806;2024-03-17T00:41:52;65583.28;;;1.50;100.00
46614;BME280;32338;50.430;6.806;2024-03-17T00:44:19;65591.13;;;1.57;100.00
46614;BME280;32338;50.430;6.806;2024-03-17T00:46:45;65601.53;;;1.64;100.00
46614;BME280;32338;50.430;6.806;2024-03-17T00:49:12;65609.34;;;1.71;100.00
46614;BME280;32338;50.430;6.806;2024-03-17T00:51:38;65615.50;;;1.77;100.00
46614;BME280;32338;50.430;6.806;2024-03-17T00:54:04;65618.16;;;1.84;100.00
46614;BME280;32338;50.430;6.806;2024-03-17T00:56:31;65621.84;;;1.85;100.00
46614;BME280;32338;50.430;6.806;2024-03-17T00:58:58;65606.00;;;1.68;100.00
46614;BME280;32338;50.430;6.806;2024-03-17T01:01:24;65590.34;;;1.54;100.00
46614;BME280;32338;50.430;6.806;2024-03-17T01:03:51;65583.28;;;1.50;100.00
46614;BME280;32338;50.430;6.806;2024-03-17T01:06:16;65587.97;;;1.56;100.00
46614;BME280;32338;50.430;6.806;2024-03-17T01:08:43;65593.13;;;1.56;100.00
46614;BME280;32338;50.430;6.806;2024-03-17T01:11:14;65589.44;;;1.55;100.00
46614;BME280;32338;50.430;6.806;2024-03-17T01:13:43;65587.75;;;1.54;100.00
46614;BME280;32338;50.430;6.806;2024-03-17T01:16:08;65592.25;;;1.58;100.00
46614;BME280;32338;50.430;6.806;2024-03-17T01:18:35;65597.25;;;1.62;100.00
46614;BME280;32338;50.430;6.806;2024-03-17T01:21:02;65590.91;;;1.54;100.00
46614;BME280;32338;50.430;6.806;2024-03-17T01:23:29;65572.81;;;1.35;100.00
46614;BME280;32338;50.430;6.806;2024-03-17T01:25:55;65557.38;;;1.23;100.00
46614;BME280;32338;50.430;6.806;2024-03-17T01:28:21;65549.97;;;1.21;100.00
46614;BME280;32338;50.430;6.806;2024-03-17T01:30:48;65553.69;;;1.22;100.00
46614;BME280;32338;50.430;6.806;2024-03-17T01:33:15;65566.53;;;1.34;100.00
46614;BME280;32338;50.430;6.806;2024-03-17T01:35:42;65559.63;;;1.25;100.00
46614;BME280;32338;50.430;6.806;2024-03-17T01:38:09;65534.34;;;1.07;100.00
46614;BME280;32338;50.430;6.806;2024-03-17T01:40:35;65527.44;;;0.98;100.00
46614;BME280;32338;50.430;6.806;2024-03-17T01:43:02;65521.63;;;0.90;100.00
46614;BME280;32338;50.430;6.806;2024-03-17T01:45:29;65509.69;;;0.77;100.00
46614;BME280;32338;50.430;6.806;2024-03-17T01:47:59;65507.09;;;0.77;100.00
46614;BME280;32338;50.430;6.806;2024-03-17T01:50:26;65519.81;;;0.93;100.00
46614;BME280;32338;50.430;6.806;2024-03-17T01:52:56;65530.44;;;1.03;100.00
46614;BME280;32338;50.430;6.806;2024-03-17T01:55:25;65533.00;;;1.03;100.00
46614;BME280;32338;50.430;6.806;2024-03-17T01:57:53;65519.94;;;0.89;100.00
46614;BME280;32338;50.430;6.806;2024-03-17T02:00:19;65500.97;;;0.71;100.00
46614;BME280;32338;50.430;6.806;2024-03-17T02:02:46;65488.66;;;0.60;100.00
46614;BME280;32338;50.430;6.806;2024-03-17T02:05:14;65490.00;;;0.63;100.00
46614;BME280;32338;50.430;6.806;2024-03-17T02:07:40;65503.75;;;0.74;100.00
46614;BME280;32338;50.430;6.806;2024-03-17T02:10:07;65496.16;;;0.69;100.00
46614;BME280;32338;50.430;6.806;2024-03-17T02:12:34;65491.13;;;0.64;100.00
46614;BME280;32338;50.430;6.806;2024-03-17T02:15:00;65482.88;;;0.52;100.00
46614;BME280;32338;50.430;6.806;2024-03-17T02:17:30;65471.94;;;0.44;100.00
46614;BME280;32338;50.430;6.806;2024-03-17T02:19:56;65478.63;;;0.51;100.00
46614;BME280;32338;50.430;6.806;2024-03-17T02:22:24;65486.09;;;0.60;100.00
46614;BME280;32338;50.430;6.806;2024-03-17T02:24:50;65495.03;;;0.68;100.00
46614;BME280;32338;50.430;6.806;2024-03-17T02:27:16;65503.75;;;0.74;100.00
46614;BME280;32338;50.430;6.806;2024-03-17T02:29:42;65502.06;;;0.72;100.00
46614;BME280;32338;50.430;6.806;2024-03-17T02:32:09;65505.06;;;0.77;100.00
46614;BME280;32338;50.430;6.806;2024-03-17T02:34:35;65502.84;;;0.75;100.00
46614;BME280;32338;50.430;6.806;2024-03-17T02:37:02;65505.06;;;0.77;100.00
46614;BME280;32338;50.430;6.806;2024-03-17T02:39:30;65503.41;;;0.76;100.00
46614;BME280;32338;50.430;6.806;2024-03-17T02:41:59;65504.31;;;0.74;100.00
46614;BME280;32338;50.430;6.806;2024-03-17T02:44:25;65511.56;;;0.81;100.00
46614;BME280;32338;50.430;6.806;2024-03-17T02:46:52;65502.28;;;0.75;100.00
46614;BME280;32338;50.430;6.806;2024-03-17T02:49:19;65485.34;;;0.57;100.00
46614;BME280;32338;50.430;6.806;2024-03-17T02:51:45;65471.03;;;0.46;100.00
46614;BME280;32338;50.430;6.806;2024-03-17T02:54:12;65462.88;;;0.41;100.00
46614;BME280;32338;50.430;6.806;2024-03-17T02:56:40;65455.75;;;0.29;100.00
46614;BME280;32338;50.430;6.806;2024-03-17T02:59:07;65452.94;;;0.27;100.00
46614;BME280;32338;50.430;6.806;2024-03-17T03:01:34;65437.53;;;0.15;100.00
46614;BME280;32338;50.430;6.806;2024-03-17T03:04:00;65420.78;;;-0.01;100.00
46614;BME280;32338;50.430;6.806;2024-03-17T03:06:27;65417.78;;;-0.06;100.00
46614;BME280;32338;50.430;6.806;2024-03-17T03:08:54;65414.09;;;-0.07;100.00
46614;BME280;32338;50.430;6.806;2024-03-17T03:11:20;65419.81;;;-0.06;100.00
46614;BME280;32338;50.430;6.806;2024-03-17T03:13:48;65405.19;;;-0.15;100.00
46614;BME280;32338;50.430;6.806;2024-03-17T03:16:15;65401.81;;;-0.18;100.00
46614;BME280;32338;50.430;6.806;2024-03-17T03:18:44;65397.38;;;-0.22;100.00
46614;BME280;32338;50.430;6.806;2024-03-17T03:21:10;65393.66;;;-0.23;100.00
46614;BME280;32338;50.430;6.806;2024-03-17T03:23:37;65406.63;;;-0.16;100.00
46614;BME280;32338;50.430;6.806;2024-03-17T03:26:04;65425.03;;;0.01;100.00
46614;BME280;32338;50.430;6.806;2024-03-17T03:28:34;65432.84;;;0.08;100.00
46614;BME280;32338;50.430;6.806;2024-03-17T03:31:03;65409.63;;;-0.11;100.00
46614;BME280;32338;50.430;6.806;2024-03-17T03:33:30;65400.28;;;-0.24;100.00
46614;BME280;32338;50.430;6.806;2024-03-17T03:35:57;65393.47;;;-0.26;100.00
46614;BME280;32338;50.430;6.806;2024-03-17T03:38:24;65382.63;;;-0.38;100.00
46614;BME280;32338;50.430;6.806;2024-03-17T03:40:51;65377.28;;;-0.41;100.00
46614;BME280;32338;50.430;6.806;2024-03-17T03:43:18;65368.69;;;-0.51;100.00
46614;BME280;32338;50.430;6.806;2024-03-17T03:45:45;65372.03;;;-0.48;100.00
46614;BME280;32338;50.430;6.806;2024-03-17T03:48:13;65391.78;;;-0.27;100.00
46614;BME280;32338;50.430;6.806;2024-03-17T03:50:40;65402.94;;;-0.17;100.00
46614;BME280;32338;50.430;6.806;2024-03-17T03:53:07;65407.75;;;-0.15;100.00
46614;BME280;32338;50.430;6.806;2024-03-17T03:55:33;65414.22;;;-0.11;100.00
46614;BME280;32338;50.430;6.806;2024-03-17T03:58:00;65405.63;;;-0.22;100.00
46614;BME280;32338;50.430;6.806;2024-03-17T04:00:29;65378.94;;;-0.39;100.00
46614;BME280;32338;50.430;6.806;2024-03-17T04:02:58;65367.25;;;-0.50;100.00
46614;BME280;32338;50.430;6.806;2024-03-17T04:05:28;65363.69;;;-0.56;100.00
46614;BME280;32338;50.430;6.806;2024-03-17T04:07:55;65359.78;;;-0.59;100.00
46614;BME280;32338;50.430;6.806;2024-03-17T04:10:21;65361.44;;;-0.58;100.00
46614;BME280;32338;50.430;6.806;2024-03-17T04:12:49;65355.19;;;-0.59;100.00
46614;BME280;32338;50.430;6.806;2024-03-17T04:15:16;65365.00;;;-0.52;100.00
46614;BME280;32338;50.430;6.806;2024-03-17T04:17:42;65375.41;;;-0.45;100.00
46614;BME280;32338;50.430;6.806;2024-03-17T04:20:10;65371.28;;;-0.51;100.00
46614;BME280;32338;50.430;6.806;2024-03-17T04:22:40;65377.41;;;-0.45;100.00
46614;BME280;32338;50.430;6.806;2024-03-17T04:25:08;65382.09;;;-0.39;100.00
46614;BME280;32338;50.430;6.806;2024-03-17T04:27:35;65387.09;;;-0.34;100.00
46614;BME280;32338;50.430;6.806;2024-03-17T04:30:03;65387.53;;;-0.29;100.00
46614;BME280;32338;50.430;6.806;2024-03-17T04:32:31;65394.56;;;-0.25;100.00
46614;BME280;32338;50.430;6.806;2024-03-17T04:34:58;65394.91;;;-0.27;100.00
46614;BME280;32338;50.430;6.806;2024-03-17T04:37:25;65396.78;;;-0.23;100.00
46614;BME280;32338;50.430;6.806;2024-03-17T04:39:53;65390.66;;;-0.28;100.00
46614;BME280;32338;50.430;6.806;2024-03-17T04:42:22;65377.63;;;-0.43;100.00
46614;BME280;32338;50.430;6.806;2024-03-17T04:44:49;65370.38;;;-0.50;100.00
46614;BME280;32338;50.430;6.806;2024-03-17T04:47:16;65367.59;;;-0.52;100.00
46614;BME280;32338;50.430;6.806;2024-03-17T04:49:44;65363.69;;;-0.56;100.00
46614;BME280;32338;50.430;6.806;2024-03-17T04:52:11;65354.19;;;-0.64;100.00
46614;BME280;32338;50.430;6.806;2024-03-17T04:54:38;65346.38;;;-0.72;100.00
46614;BME280;32338;50.430;6.806;2024-03-17T04:57:08;65345.47;;;-0.70;100.00
46614;BME280;32338;50.430;6.806;2024-03-17T04:59:35;65350.28;;;-0.68;100.00
46614;BME280;32338;50.430;6.806;2024-03-17T05:02:04;65356.97;;;-0.62;100.00
46614;BME280;32338;50.430;6.806;2024-03-17T05:04:30;65363.69;;;-0.56;100.00
46614;BME280;32338;50.430;6.806;2024-03-17T05:06:57;65368.69;;;-0.51;100.00
46614;BME280;32338;50.430;6.806;2024-03-17T05:09:24;65365.00;;;-0.52;100.00
46614;BME280;32338;50.430;6.806;2024-03-17T05:11:50;65370.91;;;-0.49;100.00
46614;BME280;32338;50.430;6.806;2024-03-17T05:14:19;65379.16;;;-0.37;100.00
46614;BME280;32338;50.430;6.806;2024-03-17T05:16:48;65395.13;;;-0.24;100.00
46614;BME280;32338;50.430;6.806;2024-03-17T05:19:15;65409.97;;;-0.13;100.00
46614;BME280;32338;50.430;6.806;2024-03-17T05:21:43;65412.97;;;-0.08;100.00
46614;BME280;32338;50.430;6.806;2024-03-17T05:24:10;65415.56;;;-0.08;100.00
46614;BME280;32338;50.430;6.806;2024-03-17T05:26:37;65422.81;;;-0.01;100.00
46614;BME280;32338;50.430;6.806;2024-03-17T05:29:04;65433.97;;;0.09;100.00
46614;BME280;32338;50.430;6.806;2024-03-17T05:31:32;65439.00;;;0.14;100.00
46614;BME280;32338;50.430;6.806;2024-03-17T05:33:58;65439.22;;;0.17;100.00
46614;BME280;32338;50.430;6.806;2024-03-17T05:36:25;65440.09;;;0.15;100.00
46614;BME280;32338;50.430;6.806;2024-03-17T05:38:52;65439.69;;;0.10;100.00
46614;BME280;32338;50.430;6.806;2024-03-17T05:41:19;65438.56;;;0.09;100.00
46614;BME280;32338;50.430;6.806;2024-03-17T05:43:45;65427.28;;;0.03;100.00
46614;BME280;32338;50.430;6.806;2024-03-17T05:46:14;65430.41;;;0.04;100.00
46614;BME280;32338;50.430;6.806;2024-03-17T05:48:42;65441.78;;;0.17;100.00
46614;BME280;32338;50.430;6.806;2024-03-17T05:51:10;65452.94;;;0.27;100.00
46614;BME280;32338;50.430;6.806;2024-03-17T05:53:39;65447.25;;;0.26;100.00
46614;BME280;32338;50.430;6.806;2024-03-17T05:56:06;65457.19;;;0.28;100.00
46614;BME280;32338;50.430;6.806;2024-03-17T05:58:34;65469.13;;;0.42;100.00
46614;BME280;32338;50.430;6.806;2024-03-17T06:01:02;65462.31;;;0.40;100.00
46614;BME280;32338;50.430;6.806;2024-03-17T06:03:29;65469.13;;;0.42;100.00
46614;BME280;32338;50.430;6.806;2024-03-17T06:05:58;65469.34;;;0.44;100.00
46614;BME280;32338;50.430;6.806;2024-03-17T06:08:25;65472.13;;;0.47;100.00
46614;BME280;32338;50.430;6.806;2024-03-17T06:10:51;65477.72;;;0.52;100.00
46614;BME280;32338;50.430;6.806;2024-03-17T06:13:18;65485.19;;;0.61;100.00
46614;BME280;32338;50.430;6.806;2024-03-17T06:15:45;65498.53;;;0.67;100.00
46614;BME280;32338;50.430;6.806;2024-03-17T06:18:13;65492.03;;;0.63;100.00
46614;BME280;32338;50.430;6.806;2024-03-17T06:20:44;65495.94;;;0.67;100.00
46614;BME280;32338;50.430;6.806;2024-03-17T06:23:13;65503.75;;;0.74;100.00
46614;BME280;32338;50.430;6.806;2024-03-17T06:25:40;65513.25;;;0.83;100.00
46614;BME280;32338;50.430;6.806;2024-03-17T06:28:07;65510.44;;;0.80;100.00
46614;BME280;32338;50.430;6.806;2024-03-17T06:30:34;65513.25;;;0.83;100.00
46614;BME280;32338;50.430;6.806;2024-03-17T06:33:02;65514.94;;;0.84;100.00
46614;BME280;32338;50.430;6.806;2024-03-17T06:35:29;65517.16;;;0.86;100.00
46614;BME280;32338;50.430;6.806;2024-03-17T06:37:59;65513.69;;;0.88;100.00
46614;BME280;32338;50.430;6.806;2024-03-17T06:40:27;65518.47;;;0.90;100.00
46614;BME280;32338;50.430;6.806;2024-03-17T06:42:54;65525.53;;;0.94;100.00
46614;BME280;32338;50.430;6.806;2024-03-17T06:45:21;65535.94;;;1.01;100.00
46614;BME280;32338;50.430;6.806;2024-03-17T06:47:48;65540.22;;;1.03;100.00
46614;BME280;32338;50.430;6.806;2024-03-17T06:50:15;65531.69;;;1.00;100.00
46614;BME280;32338;50.430;6.806;2024-03-17T06:52:41;65534.47;;;1.02;100.00
46614;BME280;32338;50.430;6.806;2024-03-17T06:55:08;65546.75;;;1.13;100.00
46614;BME280;32338;50.430;6.806;2024-03-17T06:57:36;65555.13;;;1.21;100.00
46614;BME280;32338;50.430;6.806;2024-03-17T07:00:04;65559.97;;;1.23;100.00
46614;BME280;32338;50.430;6.806;2024-03-17T07:02:31;65563.16;;;1.31;100.00
46614;BME280;32338;50.430;6.806;2024-03-17T07:04:58;65574.56;;;1.44;100.00
46614;BME280;32338;50.430;6.806;2024-03-17T07:07:26;65596.50;;;1.59;100.00
46614;BME280;32338;50.430;6.806;2024-03-17T07:09:53;65604.53;;;1.69;100.00
46614;BME280;32338;50.430;6.806;2024-03-17T07:12:20;65615.50;;;1.77;100.00
46614;BME280;32338;50.430;6.806;2024-03-17T07:14:51;65635.41;;;1.93;100.00
46614;BME280;32338;50.430;6.806;2024-03-17T07:17:17;65651.63;;;2.08;100.00
46614;BME280;32338;50.430;6.806;2024-03-17T07:19:44;65654.06;;;2.13;100.00
46614;BME280;32338;50.430;6.806;2024-03-17T07:22:11;65665.47;;;2.25;100.00
46614;BME280;32338;50.430;6.806;2024-03-17T07:24:37;65682.59;;;2.39;100.00
46614;BME280;32338;50.430;6.806;2024-03-17T07:27:04;65690.44;;;2.46;100.00
46614;BME280;32338;50.430;6.806;2024-03-17T07:29:34;65708.88;;;2.63;100.00
46614;BME280;32338;50.430;6.806;2024-03-17T07:32:02;65719.94;;;2.78;100.00
46614;BME280;32338;50.430;6.806;2024-03-17T07:34:30;65741.13;;;2.90;100.00
46614;BME280;32338;50.430;6.806;2024-03-17T07:36:57;65750.28;;;3.01;100.00
46614;BME280;32338;50.430;6.806;2024-03-17T07:39:28;65756.88;;;3.12;100.00
46614;BME280;32338;50.430;6.806;2024-03-17T07:41:57;65780.50;;;3.29;100.00
46614;BME280;32338;50.430;6.806;2024-03-17T07:44:24;65789.13;;;3.39;100.00
46614;BME280;32338;50.430;6.806;2024-03-17T07:46:51;65802.13;;;3.47;100.00
46614;BME280;32338;50.430;6.806;2024-03-17T07:49:19;65806.47;;;3.55;100.00
46614;BME280;32338;50.430;6.806;2024-03-17T07:51:45;65817.09;;;3.65;100.00
46614;BME280;32338;50.430;6.806;2024-03-17T07:54:12;65811.72;;;3.63;100.00
46614;BME280;32338;50.430;6.806;2024-03-17T07:56:39;65824.97;;;3.72;100.00
46614;BME280;32338;50.430;6.806;2024-03-17T07:59:05;65822.16;;;3.70;100.00
46614;BME280;32338;50.430;6.806;2024-03-17T08:01:37;65819.34;;;3.67;100.00
46614;BME280;32338;50.430;6.806;2024-03-17T08:04:04;65812.63;;;3.61;100.00
46614;BME280;32338;50.430;6.806;2024-03-17T08:06:32;65828.47;;;3.71;100.00
46614;BME280;32338;50.430;6.806;2024-03-17T08:08:58;65842.13;;;3.86;100.00
46614;BME280;32338;50.430;6.806;2024-03-17T08:11:25;65863.59;;;4.08;100.00
46614;BME280;32338;50.430;6.806;2024-03-17T08:13:52;65855.41;;;4.03;100.00
46614;BME280;32338;50.430;6.806;2024-03-17T08:16:19;65868.84;;;4.15;100.00
46614;BME280;32338;50.430;6.806;2024-03-17T08:18:46;65881.88;;;4.22;100.00
46614;BME280;32338;50.430;6.806;2024-03-17T08:21:12;65908.22;;;4.47;100.00
46614;BME280;32338;50.430;6.806;2024-03-17T08:23:40;65921.66;;;4.59;100.00
46614;BME280;32338;50.430;6.806;2024-03-17T08:26:08;65935.69;;;4.72;100.00
46614;BME280;32338;50.430;6.806;2024-03-17T08:28:35;65942.81;;;4.83;100.00
46614;BME280;32338;50.430;6.806;2024-03-17T08:31:03;65960.19;;;4.99;100.00
46614;BME280;32338;50.430;6.806;2024-03-17T08:33:30;66004.03;;;5.28;100.00
46614;BME280;32338;50.430;6.806;2024-03-17T08:35:59;66002.97;;;5.34;100.00
46614;BME280;32338;50.430;6.806;2024-03-17T08:38:27;66019.22;;;5.49;100.00
46614;BME280;32338;50.430;6.806;2024-03-17T08:40:56;66039.97;;;5.68;100.00
46614;BME280;32338;50.430;6.806;2024-03-17T08:43:23;66063.56;;;5.90;100.00
46614;BME280;32338;50.430;6.806;2024-03-17T08:45:57;66081.94;;;6.11;100.00
46614;BME280;32338;50.430;6.806;2024-03-17T08:48:25;66109.22;;;6.34;100.00
46614;BME280;32338;50.430;6.806;2024-03-17T08:50:52;66099.69;;;6.25;100.00
46614;BME280;32338;50.430;6.806;2024-03-17T08:53:19;66128.31;;;6.52;100.00
46614;BME280;32338;50.430;6.806;2024-03-17T08:55:46;66131.47;;;6.52;100.00
46614;BME280;32338;50.430;6.806;2024-03-17T08:58:14;66140.88;;;6.65;100.00
46614;BME280;32338;50.430;6.806;2024-03-17T09:00:41;66165.75;;;6.84;100.00
46614;BME280;32338;50.430;6.806;2024-03-17T09:03:08;66194.41;;;7.10;100.00
46614;BME280;32338;50.430;6.806;2024-03-17T09:05:35;66215.72;;;7.29;100.00
46614;BME280;32338;50.430;6.806;2024-03-17T09:10:29;66198.88;;;7.14;100.00
46614;BME280;32338;50.430;6.806;2024-03-17T09:12:56;66233.69;;;7.46;100.00
46614;BME280;32338;50.430;6.806;2024-03-17T09:15:24;66228.09;;;7.41;100.00
46614;BME280;32338;50.430;6.806;2024-03-17T09:17:51;66247.03;;;7.63;100.00
46614;BME280;32338;50.430;6.806;2024-03-17T09:20:18;66269.31;;;7.81;100.00
46614;BME280;32338;50.430;6.806;2024-03-17T09:22:44;66285.63;;;7.96;100.00
46614;BME280;32338;50.430;6.806;2024-03-17T09:25:11;66314.09;;;8.20;100.00
46614;BME280;32338;50.430;6.806;2024-03-17T09:27:37;66309.25;;;8.18;100.00
46614;BME280;32338;50.430;6.806;2024-03-17T09:30:04;66292.56;;;8.05;100.00
46614;BME280;32338;50.430;6.806;2024-03-17T09:32:36;66265.41;;;7.77;100.00
46614;BME280;32338;50.430;6.806;2024-03-17T09:35:03;66301.97;;;8.18;100.00
46614;BME280;32338;50.430;6.806;2024-03-17T09:37:30;66294.97;;;8.02;100.00
46614;BME280;32338;50.430;6.806;2024-03-17T09:39:56;66320.47;;;8.28;100.00
46614;BME280;32338;50.430;6.806;2024-03-17T09:42:25;66331.72;;;8.38;100.00
46614;BME280;32338;50.430;6.806;2024-03-17T09:44:53;66330.41;;;8.35;100.00
46614;BME280;32338;50.430;6.806;2024-03-17T09:47:22;66352.00;;;8.57;100.00
46614;BME280;32338;50.430;6.806;2024-03-17T09:49:53;66360.59;;;8.60;100.00
46614;BME280;32338;50.430;6.806;2024-03-17T09:52:20;66354.59;;;8.57;100.00
46614;BME280;32338;50.430;6.806;2024-03-17T09:54:53;66320.88;;;8.33;100.00
46614;BME280;32338;50.430;6.806;2024-03-17T09:57:22;66337.72;;;8.41;100.00
46614;BME280;32338;50.430;6.806;2024-03-17T09:59:51;66328.75;;;8.40;100.00
46614;BME280;32338;50.430;6.806;2024-03-17T10:02:18;66341.31;;;8.47;100.00
46614;BME280;32338;50.430;6.806;2024-03-17T10:04:45;66335.31;;;8.44;100.00
46614;BME280;32338;50.430;6.806;2024-03-17T10:07:13;66363.81;;;8.68;100.00
46614;BME280;32338;50.430;6.806;2024-03-17T10:09:41;66416.28;;;9.11;100.00
46614;BME280;32338;50.430;6.806;2024-03-17T10:12:25;66424.00;;;9.23;100.00
46614;BME280;32338;50.430;6.806;2024-03-17T10:15:01;66430.97;;;9.32;100.00
46614;BME280;32338;50.430;6.806;2024-03-17T10:17:30;66446.16;;;9.46;100.00
46614;BME280;32338;50.430;6.806;2024-03-17T10:20:14;66407.69;;;9.08;100.00
46614;BME280;32338;50.430;6.806;2024-03-17T10:23:01;66428.88;;;9.25;100.00
46614;BME280;32338;50.430;6.806;2024-03-17T10:25:29;66459.09;;;9.50;100.00
46614;BME280;32338;50.430;6.806;2024-03-17T10:27:56;66456.47;;;9.50;100.00
46614;BME280;32338;50.430;6.806;2024-03-17T10:30:23;66467.34;;;9.63;100.00
46614;BME280;32338;50.430;6.806;2024-03-17T10:32:55;66445.97;;;9.43;100.00
46614;BME280;32338;50.430;6.806;2024-03-17T10:35:27;66450.63;;;9.43;100.00
46614;BME280;32338;50.430;6.806;2024-03-17T10:37:55;66470.16;;;9.65;100.00
46614;BME280;32338;50.430;6.806;2024-03-17T10:40:25;66489.31;;;9.83;100.00
46614;BME280;32338;50.430;6.806;2024-03-17T10:42:52;66487.59;;;9.81;100.00
46614;BME280;32338;50.430;6.806;2024-03-17T10:45:18;66477.69;;;9.74;100.00
46614;BME280;32338;50.430;6.806;2024-03-17T10:47:48;66472.41;;;9.67;100.00
46614;BME280;32338;50.430;6.806;2024-03-17T10:50:17;66472.41;;;9.67;100.00
46614;BME280;32338;50.430;6.806;2024-03-17T10:52:45;66426.25;;;9.25;100.00
46614;BME280;32338;50.430;6.806;2024-03-17T10:55:20;66452.72;;;9.49;100.00
46614;BME280;32338;50.430;6.806;2024-03-17T10:57:50;66466.22;;;9.62;100.00
46614;BME280;32338;50.430;6.806;2024-03-17T11:00:18;66509.22;;;10.03;100.00
46614;BME280;32338;50.430;6.806;2024-03-17T11:02:47;66546.41;;;10.37;100.00
46614;BME280;32338;50.430;6.806;2024-03-17T11:05:18;66589.03;;;10.74;100.00
46614;BME280;32338;50.430;6.806;2024-03-17T11:07:46;66607.44;;;10.89;100.00
46614;BME280;32338;50.430;6.806;2024-03-17T11:10:18;66635.81;;;11.17;100.00
46614;BME280;32338;50.430;6.806;2024-03-17T11:12:46;66673.03;;;11.51;100.00
46614;BME280;32338;50.430;6.806;2024-03-17T11:15:38;66696.34;;;11.75;100.00
46614;BME280;32338;50.430;6.806;2024-03-17T11:21:22;66715.31;;;11.90;100.00
46614;BME280;32338;50.430;6.806;2024-03-17T11:23:58;66709.13;;;11.84;100.00
46614;BME280;32338;50.430;6.806;2024-03-17T11:26:30;66679.03;;;11.54;100.00
46614;BME280;32338;50.430;6.806;2024-03-17T11:28:57;66692.94;;;11.64;100.00
46614;BME280;32338;50.430;6.806;2024-03-17T11:31:37;66677.91;;;11.60;100.00
46614;BME280;32338;50.430;6.806;2024-03-17T11:34:07;66701.22;;;11.77;100.00
46614;BME280;32338;50.430;6.806;2024-03-17T11:36:51;66722.50;;;12.01;100.00
46614;BME280;32338;50.430;6.806;2024-03-17T11:39:19;66703.13;;;11.81;100.00
46614;BME280;32338;50.430;6.806;2024-03-17T11:41:47;66742.63;;;12.17;100.00
46614;BME280;32338;50.430;6.806;2024-03-17T11:44:15;66727.94;;;12.04;100.00
46614;BME280;32338;50.430;6.806;2024-03-17T11:46:45;66715.88;;;11.90;100.00
46614;BME280;32338;50.430;6.806;2024-03-17T11:49:19;66654.03;;;11.36;100.00
46614;BME280;32338;50.430;6.806;2024-03-17T11:51:46;66627.56;;;11.12;100.00
46614;BME280;32338;50.430;6.806;2024-03-17T11:54:14;66626.22;;;11.08;100.00
46614;BME280;32338;50.430;6.806;2024-03-17T11:56:48;66628.47;;;11.10;100.00
46614;BME280;32338;50.430;6.806;2024-03-17T11:59:14;66606.88;;;10.95;100.00
46614;BME280;32338;50.430;6.806;2024-03-17T12:01:45;66652.53;;;11.30;100.00
46614;BME280;32338;50.430;6.806;2024-03-17T12:04:13;66694.66;;;11.73;100.00
46614;BME280;32338;50.430;6.806;2024-03-17T12:06:44;66724.56;;;12.00;100.00
46614;BME280;32338;50.430;6.806;2024-03-17T12:09:18;66753.91;;;12.27;100.00
46614;BME280;32338;50.430;6.806;2024-03-17T12:11:47;66785.50;;;12.56;100.00
46614;BME280;32338;50.430;6.806;2024-03-17T12:14:17;66820.50;;;12.88;100.00
46614;BME280;32338;50.430;6.806;2024-03-17T12:16:53;66826.91;;;12.96;100.00
46614;BME280;32338;50.430;6.806;2024-03-17T12:19:19;66819.94;;;12.88;100.00
46614;BME280;32338;50.430;6.806;2024-03-17T12:21:48;66784.56;;;12.58;100.00
46614;BME280;32338;50.430;6.806;2024-03-17T12:24:16;66730.22;;;12.06;100.00
46614;BME280;32338;50.430;6.806;2024-03-17T12:26:43;66729.28;;;12.07;100.00
46614;BME280;32338;50.430;6.806;2024-03-17T12:29:29;66755.03;;;12.28;100.00
46614;BME280;32338;50.430;6.806;2024-03-17T12:32:00;66735.66;;;12.08;100.00
46614;BME280;32338;50.430;6.806;2024-03-17T12:34:27;66701.03;;;11.81;100.00
46614;BME280;32338;50.430;6.806;2024-03-17T12:36:56;66677.34;;;11.60;100.00
46614;BME280;32338;50.430;6.806;2024-03-17T12:39:24;66673.78;;;11.54;100.00
46614;BME280;32338;50.430;6.806;2024-03-17T12:42:08;66689.38;;;11.66;100.00
46614;BME280;32338;50.430;6.806;2024-03-17T12:44:35;66694.06;;;11.73;100.00
46614;BME280;32338;50.430;6.806;2024-03-17T12:47:04;66669.06;;;11.47;100.00
46614;BME280;32338;50.430;6.806;2024-03-17T12:49:32;66681.47;;;11.59;100.00
46614;BME280;32338;50.430;6.806;2024-03-17T12:51:59;66674.72;;;11.52;100.00
46614;BME280;32338;50.430;6.806;2024-03-17T12:54:27;66677.72;;;11.58;100.00
46614;BME280;32338;50.430;6.806;2024-03-17T12:57:04;66649.16;;;11.27;100.00
46614;BME280;32338;50.430;6.806;2024-03-17T12:59:49;66620.22;;;11.05;100.00
46614;BME280;32338;50.430;6.806;2024-03-17T13:02:49;66640.13;;;11.18;100.00
46614;BME280;32338;50.430;6.806;2024-03-17T13:05:17;66649.72;;;11.27;100.00
46614;BME280;32338;50.430;6.806;2024-03-17T13:07:42;66656.31;;;11.38;100.00